createdAt,value
2023-05-21T00:05:05.139Z,3.33
2023-05-21T00:15:10.074Z,3.78
2023-05-21T00:25:13.394Z,3.65
2023-05-21T00:35:22.478Z,3.78
2023-05-21T00:45:30.291Z,4.30
2023-05-21T00:55:35.873Z,3.25
2023-05-21T01:05:41.316Z,3.63
2023-05-21T01:15:46.916Z,4.10
2023-05-21T01:25:56.405Z,3.58
2023-05-21T01:36:06.485Z,3.22
2023-05-21T01:46:16.534Z,3.20
2023-05-21T01:56:26.376Z,5.40
2023-05-21T02:06:33.128Z,3.47
2023-05-21T02:16:38.621Z,3.33
2023-05-21T02:26:43.799Z,2.80
2023-05-21T02:36:55.162Z,3.20
2023-05-21T02:47:08.733Z,3.78
2023-05-21T02:57:11.700Z,3.08
2023-05-21T03:07:19.380Z,3.30
2023-05-21T03:17:24.056Z,3.30
2023-05-21T03:27:28.580Z,3.75
2023-05-21T03:37:33.339Z,3.60
2023-05-21T03:47:42.171Z,3.40
2023-05-21T03:57:45.995Z,3.63
2023-05-21T04:07:53.193Z,3.17
2023-05-21T04:17:58.994Z,3.58
2023-05-21T04:28:01.719Z,3.85
2023-05-21T04:38:11.167Z,3.47
2023-05-21T04:48:15.983Z,2.92
2023-05-21T04:58:20.673Z,2.95
2023-05-21T05:08:26.188Z,2.60
2023-05-21T05:18:30.902Z,3.05
2023-05-21T05:28:35.887Z,2.40
2023-05-21T05:38:38.320Z,2.20
2023-05-21T05:48:48.968Z,2.22
2023-05-21T05:58:58.855Z,2.70
2023-05-21T06:09:08.290Z,2.67
2023-05-21T06:19:12.842Z,2.53
2023-05-21T06:29:15.716Z,2.53
2023-05-21T06:39:18.536Z,2.53
2023-05-21T06:49:21.168Z,2.17
2023-05-21T06:59:26.908Z,2.22
2023-05-21T07:09:32.488Z,2.13
2023-05-21T07:19:38.445Z,2.55
2023-05-21T07:29:40.861Z,2.00
2023-05-21T07:39:43.592Z,1.95
2023-05-21T07:49:47.990Z,1.98
2023-05-21T07:59:51.433Z,1.88
2023-05-21T08:09:56.567Z,1.83
2023-05-21T08:20:01.523Z,1.70
2023-05-21T08:30:08.387Z,2.00
2023-05-21T08:40:12.771Z,2.15
2023-05-21T08:50:21.256Z,1.85
2023-05-21T09:00:25.991Z,1.65
2023-05-21T09:10:36.413Z,1.73
2023-05-21T09:20:45.249Z,1.55
2023-05-21T09:30:51.294Z,1.70
2023-05-21T09:40:59.269Z,1.88
2023-05-21T09:51:13.172Z,1.73
2023-05-21T10:01:20.096Z,2.42
2023-05-21T10:11:31.227Z,1.83
2023-05-21T10:21:39.090Z,1.95
2023-05-21T10:31:50.199Z,2.13
2023-05-21T10:42:01.394Z,1.75
2023-05-21T10:52:24.276Z,1.85
2023-05-21T11:02:27.141Z,1.98
2023-05-21T11:12:38.032Z,2.22
2023-05-21T11:22:40.553Z,1.95
2023-05-21T11:33:11.497Z,2.28
2023-05-21T11:43:16.370Z,1.67
2023-05-21T11:53:23.455Z,1.80
2023-05-21T12:03:27.504Z,2.08
2023-05-21T12:13:34.644Z,1.98
2023-05-21T12:23:38.164Z,2.03
2023-05-21T12:33:41.668Z,1.60
2023-05-21T12:43:44.247Z,2.08
2023-05-21T12:53:54.171Z,1.45
2023-05-21T13:04:01.697Z,1.90
2023-05-21T13:14:06.415Z,1.60
2023-05-21T13:24:08.824Z,2.08
2023-05-21T13:34:13.837Z,1.75
2023-05-21T13:44:21.026Z,1.20
2023-05-21T13:54:25.477Z,1.75
2023-05-21T14:04:30.084Z,1.58
2023-05-21T14:14:34.657Z,1.77
2023-05-21T14:24:36.892Z,1.98
2023-05-21T14:34:44.192Z,1.90
2023-05-21T14:44:49.234Z,1.73
2023-05-21T14:54:53.972Z,1.10
2023-05-21T15:04:58.940Z,1.70
2023-05-21T15:15:08.468Z,1.70
2023-05-21T15:25:13.150Z,1.73
2023-05-21T15:35:15.720Z,2.08
2023-05-21T15:45:20.639Z,2.10
2023-05-21T15:55:28.280Z,1.60
2023-05-21T16:05:33.188Z,1.95
2023-05-21T16:15:35.701Z,1.67
2023-05-21T16:25:38.623Z,1.90
2023-05-21T16:35:42.223Z,2.17
2023-05-21T16:45:46.773Z,1.92
2023-05-21T16:55:52.482Z,1.90
2023-05-21T17:06:00.279Z,2.00
2023-05-21T17:16:04.769Z,2.20
2023-05-21T17:26:11.337Z,2.03
2023-05-21T17:36:16.609Z,1.88
2023-05-21T17:46:21.388Z,2.10
2023-05-21T17:56:29.425Z,2.10
2023-05-21T18:06:33.953Z,2.08
2023-05-21T18:16:38.849Z,2.22
2023-05-21T18:26:47.145Z,2.00
2023-05-21T18:36:55.177Z,2.15
2023-05-21T18:46:58.052Z,2.42
2023-05-21T18:57:02.862Z,2.40
2023-05-21T19:07:10.267Z,2.40
2023-05-21T19:17:14.922Z,2.50
2023-05-21T19:27:18.324Z,2.45
2023-05-21T19:37:20.662Z,2.42
2023-05-21T19:47:25.060Z,2.50
2023-05-21T19:57:27.352Z,3.67
2023-05-21T20:07:30.795Z,2.88
2023-05-21T20:17:34.509Z,2.90
2023-05-21T20:27:39.181Z,2.65
2023-05-21T20:37:43.566Z,3.33
2023-05-21T20:47:50.271Z,3.25
2023-05-21T20:57:57.958Z,3.15
2023-05-21T21:08:02.679Z,3.40
2023-05-21T21:18:09.967Z,3.50
2023-05-21T21:28:12.252Z,3.17
2023-05-21T21:38:15.062Z,3.47
2023-05-21T21:48:22.677Z,3.60
2023-05-21T21:58:27.832Z,4.00
2023-05-21T22:08:36.933Z,3.40
2023-05-21T22:18:42.313Z,3.42
2023-05-21T22:28:49.475Z,3.28
2023-05-21T22:38:51.701Z,5.80
2023-05-21T22:48:56.151Z,3.55
2023-05-21T22:58:58.711Z,3.05
2023-05-21T23:09:03.413Z,3.20
2023-05-21T23:19:05.667Z,4.03
2023-05-21T23:29:12.685Z,3.45
2023-05-21T23:39:15.211Z,3.63
2023-05-21T23:49:17.450Z,2.92
2023-05-21T23:59:22.050Z,3.40
